Time;durP1;ratioP1;P1;durP2;ratioP2;P2;SDS_P1;SDS_P2;PMS_P1;PMS_P2;Temp;Humidity;BMP_temperature;BMP_pressure;BME280_temperature;BME280_humidity;BME280_pressure;Samples;Min_cycle;Max_cycle;Signal;HPM_P1;HPM_P2
2023/01/02 00:02:17;;;;;;;8.90;2.35;;;11.60;99.90;;;10.69;100.00;97505.00;4994189;28;20425;-76
2023/01/02 00:04:44;;;;;;;8.27;2.60;;;11.60;99.90;;;10.64;100.00;97494.38;5012817;28;20704;-77
2023/01/02 00:07:10;;;;;;;8.05;2.83;;;11.60;99.90;;;10.56;100.00;97494.81;5013114;28;20417;-76
2023/01/02 00:09:36;;;;;;;6.55;2.60;;;11.50;99.90;;;10.60;100.00;97488.00;4995248;28;20455;-76
2023/01/02 00:12:03;;;;;;;5.57;2.60;;;11.40;99.90;;;10.64;100.00;97484.59;5012287;28;20512;-76
2023/01/02 00:14:29;;;;;;;5.65;2.10;;;11.50;99.90;;;10.66;100.00;97476.41;5012340;28;20496;-77
2023/01/02 00:16:55;;;;;;;4.38;2.20;;;11.50;99.90;;;10.62;100.00;97484.03;5012701;28;20401;-75
2023/01/02 00:19:21;;;;;;;6.65;2.63;;;11.50;99.90;;;10.64;100.00;97486.44;5012416;28;20416;-75
2023/01/02 00:21:48;;;;;;;4.15;2.40;;;11.50;99.90;;;10.63;100.00;97476.91;5011879;28;20479;-76
2023/01/02 00:24:14;;;;;;;4.45;2.20;;;11.50;99.90;;;10.68;100.00;97474.28;5012070;28;20609;-76
2023/01/02 00:26:40;;;;;;;6.45;2.15;;;11.60;99.90;;;10.60;100.00;97480.81;5012759;28;20412;-76
2023/01/02 00:29:06;;;;;;;5.40;2.28;;;11.50;99.90;;;10.61;100.00;97473.69;5012168;28;20766;-77
2023/01/02 00:31:32;;;;;;;4.40;2.13;;;11.50;99.90;;;10.58;100.00;97469.72;5011783;28;20462;-76
2023/01/02 00:33:57;;;;;;;5.97;2.10;;;11.50;99.90;;;10.58;100.00;97458.31;5011977;28;20958;-76
2023/01/02 00:36:25;;;;;;;8.63;2.50;;;11.50;99.90;;;10.53;100.00;97464.34;5012538;28;20810;-76
2023/01/02 00:38:55;;;;;;;8.13;2.88;;;11.40;99.90;;;10.61;100.00;97457.81;5012265;28;20752;-77
2023/01/02 00:41:21;;;;;;;7.85;2.30;;;11.50;99.90;;;10.70;100.00;97449.19;5011745;28;20794;-76
2023/01/02 00:43:47;;;;;;;6.05;2.20;;;11.50;99.90;;;10.72;100.00;97454.22;5012000;28;20917;-75
2023/01/02 00:46:13;;;;;;;3.78;2.00;;;11.60;99.90;;;10.75;100.00;97445.78;5012413;28;20413;-75
2023/01/02 00:48:39;;;;;;;6.20;2.10;;;11.60;99.90;;;10.77;100.00;97454.25;5012534;28;20487;-75
2023/01/02 00:51:05;;;;;;;7.03;2.40;;;11.60;99.90;;;10.78;100.00;97453.22;5012449;28;20505;-76
2023/01/02 00:53:31;;;;;;;4.35;2.20;;;11.60;99.90;;;10.66;100.00;97449.94;5011329;28;20404;-76
2023/01/02 00:55:58;;;;;;;5.82;2.30;;;11.50;99.90;;;10.68;100.00;97448.63;5012368;28;20409;-76
2023/01/02 00:58:24;;;;;;;4.45;1.90;;;11.50;99.90;;;10.72;100.00;97459.53;5012178;28;20491;-76
2023/01/02 01:00:50;;;;;;;4.22;2.15;;;11.50;99.90;;;10.67;100.00;97451.53;5011988;28;21094;-76
2023/01/02 01:03:16;;;;;;;3.33;1.90;;;11.50;99.90;;;10.71;100.00;97450.78;5011223;28;20508;-77
2023/01/02 01:05:42;;;;;;;7.43;2.35;;;11.60;99.90;;;10.63;100.00;97458.38;5011973;28;20405;-76
2023/01/02 01:08:08;;;;;;;6.57;2.30;;;11.50;99.90;;;10.67;100.00;97449.69;5011773;28;20447;-76
2023/01/02 01:10:36;;;;;;;7.72;2.17;;;11.50;99.90;;;10.68;100.00;97466.34;5011732;28;20396;-76
2023/01/02 01:13:04;;;;;;;8.27;2.35;;;11.50;99.90;;;10.63;100.00;97467.09;5010916;28;20420;-75
2023/01/02 01:15:31;;;;;;;4.90;2.53;;;11.50;99.90;;;10.61;100.00;97473.69;5011801;28;20397;-76
2023/01/02 01:17:57;;;;;;;6.43;2.03;;;11.50;99.90;;;10.59;100.00;97462.56;5011694;28;20903;-76
2023/01/02 01:20:23;;;;;;;4.10;1.92;;;11.50;99.90;;;10.57;100.00;97465.47;5011868;28;20436;-76
2023/01/02 01:22:49;;;;;;;4.73;2.27;;;11.50;99.90;;;10.53;100.00;97459.03;5010889;28;20443;-76
2023/01/02 01:25:15;;;;;;;4.43;2.30;;;11.40;99.90;;;10.66;100.00;97463.97;5011767;28;20408;-76
2023/01/02 01:27:41;;;;;;;4.00;2.10;;;11.40;99.90;;;10.64;100.00;97459.97;5011739;28;20941;-76
2023/01/02 01:30:10;;;;;;;5.57;2.40;;;11.50;99.90;;;10.80;100.00;97465.16;5011906;28;20499;-76
2023/01/02 01:32:36;;;;;;;3.38;2.30;;;11.60;99.90;;;10.82;100.00;97472.88;5010932;28;20440;-76
2023/01/02 01:35:02;;;;;;;6.18;2.03;;;11.60;99.90;;;10.88;100.00;97471.88;5011623;28;20552;-76
2023/01/02 01:37:28;;;;;;;4.40;2.30;;;11.70;99.90;;;10.86;100.00;97479.25;5011408;28;20463;-76
2023/01/02 01:39:54;;;;;;;7.18;2.72;;;11.70;99.90;;;10.83;100.00;97475.25;5010483;28;20511;-76
2023/01/02 01:42:20;;;;;;;7.07;2.30;;;11.70;99.90;;;10.94;100.00;97476.16;5010455;28;20423;-76
2023/01/02 01:44:48;;;;;;;5.95;2.47;;;11.80;99.90;;;11.00;100.00;97480.44;5010829;28;20400;-77
2023/01/02 01:47:24;;;;;;;5.88;2.15;;;11.80;99.90;;;11.02;100.00;97481.00;5011392;28;20408;-76
2023/01/02 01:49:59;;;;;;;4.88;2.33;;;11.90;99.90;;;11.02;100.00;97483.66;5010985;28;20901;-76
2023/01/02 01:52:28;;;;;;;5.00;1.98;;;11.80;99.90;;;11.15;100.00;97482.44;5010192;28;20976;-77
2023/01/02 01:55:00;;;;;;;4.47;2.30;;;11.90;99.90;;;11.16;100.00;97481.38;5010661;28;20435;-77
2023/01/02 01:57:32;;;;;;;4.50;2.22;;;12.00;99.90;;;11.25;100.00;97478.03;5010966;28;20397;-76
2023/01/02 01:59:59;;;;;;;6.85;1.98;;;12.00;99.90;;;11.18;100.00;97479.28;5010903;28;20393;-76
2023/01/02 02:02:30;;;;;;;4.30;2.40;;;12.00;99.90;;;11.16;100.00;97478.72;5010116;28;20476;-76
2023/01/02 02:04:57;;;;;;;5.60;2.85;;;12.00;99.90;;;11.36;100.00;97486.84;5010663;28;20392;-76
2023/01/02 02:07:23;;;;;;;5.35;2.45;;;12.10;99.90;;;11.28;100.00;97478.59;5010757;28;20405;-76
2023/01/02 02:09:55;;;;;;;8.45;2.30;;;12.10;99.90;;;11.14;100.00;97471.03;5010637;28;20408;-76
2023/01/02 02:12:21;;;;;;;4.57;2.40;;;12.00;99.90;;;11.18;100.00;97480.09;5009970;28;20406;-76
2023/01/02 02:14:47;;;;;;;6.05;2.50;;;12.00;99.90;;;11.22;100.00;97475.88;5010016;28;20397;-76
2023/01/02 02:17:25;;;;;;;5.40;2.20;;;12.10;99.90;;;11.22;100.00;97467.13;5010247;28;20419;-76
2023/01/02 02:20:25;;;;;;;3.80;2.23;;;12.10;99.90;;;11.16;100.00;97471.59;5010183;28;20450;-76
2023/01/02 02:23:31;;;;;;;5.30;2.67;;;12.00;99.90;;;11.12;100.00;97467.06;5009140;28;20521;-76
2023/01/02 02:26:52;;;;;;;4.53;2.10;;;11.90;99.90;;;11.23;100.00;97461.56;5010052;28;20416;-76
2023/01/02 02:30:09;;;;;;;4.32;2.20;;;12.10;99.90;;;11.26;100.00;97460.28;5010027;28;20405;-76
2023/01/02 02:33:01;;;;;;;3.00;1.90;;;12.10;99.90;;;11.39;100.00;97446.59;5006379;28;20413;-76
2023/01/02 02:35:42;;;;;;;3.38;2.08;;;12.20;99.90;;;11.46;100.00;97439.22;5010043;28;20429;-76
2023/01/02 02:38:13;;;;;;;4.72;2.33;;;12.20;99.90;;;11.51;100.00;97443.75;5009888;28;20404;-76
2023/01/02 02:40:54;;;;;;;7.57;2.40;;;12.30;99.90;;;11.53;100.00;97444.28;5010046;28;20476;-76
2023/01/02 02:43:31;;;;;;;5.95;2.22;;;12.30;99.90;;;11.58;100.00;97441.66;5009022;28;20458;-75
2023/01/02 02:46:06;;;;;;;6.05;2.25;;;12.40;99.90;;;11.69;100.00;97440.69;5009906;28;20412;-76
2023/01/02 02:48:42;;;;;;;4.43;2.30;;;12.50;99.90;;;11.75;100.00;97437.03;5009832;28;20487;-75
2023/01/02 02:51:14;;;;;;;3.75;2.00;;;12.50;99.90;;;11.70;100.00;97439.63;5009436;28;20404;-77
2023/01/02 02:53:44;;;;;;;5.53;2.17;;;12.50;99.90;;;11.68;100.00;97433.78;5009481;28;20423;-76
2023/01/02 02:56:13;;;;;;;7.03;2.05;;;12.50;99.90;;;11.78;100.00;97435.72;4991976;28;20783;-76
2023/01/02 02:58:41;;;;;;;7.77;2.60;;;12.60;99.90;;;11.71;100.00;97433.28;4992173;28;20404;-75
2023/01/02 03:01:13;;;;;;;5.95;2.30;;;12.50;99.90;;;11.67;100.00;97431.38;5009560;28;20405;-76
2023/01/02 03:03:40;;;;;;;5.55;2.40;;;12.50;99.90;;;11.76;100.00;97428.03;5009275;28;20405;-76
2023/01/02 03:06:35;;;;;;;6.38;2.28;;;12.50;99.90;;;11.80;100.00;97423.03;5009636;28;20451;-76
2023/01/02 03:09:12;;;;;;;4.73;2.17;;;12.60;99.90;;;11.80;100.00;97423.78;5009610;28;20473;-75
2023/01/02 03:11:54;;;;;;;7.97;2.42;;;12.60;99.90;;;11.76;100.00;97422.72;5009001;28;20393;-76
2023/01/02 03:14:28;;;;;;;3.72;2.13;;;12.60;99.90;;;11.82;100.00;97424.34;5009276;28;20437;-76
2023/01/02 03:17:01;;;;;;;2.78;1.73;;;12.60;99.90;;;11.76;100.00;97422.72;5009523;28;20452;-76
2023/01/02 03:19:36;;;;;;;6.38;2.30;;;12.50;99.90;;;11.71;100.00;97429.81;5009771;28;20886;-76
2023/01/02 03:22:10;;;;;;;5.03;2.33;;;12.60;99.90;;;11.81;100.00;97429.91;5009069;28;20452;-76
2023/01/02 03:24:38;;;;;;;5.97;2.40;;;12.60;99.90;;;11.83;100.00;97427.78;5009502;28;20401;-75
2023/01/02 03:27:09;;;;;;;3.33;1.80;;;12.60;99.90;;;11.75;100.00;97423.78;5009822;28;20405;-76
2023/01/02 03:29:42;;;;;;;3.23;1.97;;;12.50;99.90;;;11.67;100.00;97424.22;5009783;28;20517;-76
2023/01/02 03:32:12;;;;;;;4.07;2.27;;;12.40;99.90;;;11.51;100.00;97428.63;5008908;28;20885;-76
2023/01/02 03:34:42;;;;;;;3.20;2.00;;;12.30;99.90;;;11.47;100.00;97440.00;5009308;28;20443;-76
2023/01/02 03:37:14;;;;;;;6.20;2.38;;;12.30;99.90;;;11.42;100.00;97435.50;5009558;28;20508;-76
2023/01/02 03:39:48;;;;;;;4.05;2.10;;;12.20;99.90;;;11.39;100.00;97438.63;5009778;28;20420;-76
2023/01/02 03:42:24;;;;;;;6.60;2.10;;;12.20;99.90;;;11.47;100.00;97440.81;5008768;28;20831;-76
2023/01/02 03:44:58;;;;;;;5.60;2.00;;;12.20;99.90;;;11.28;100.00;97442.25;5009265;28;20416;-76
2023/01/02 03:47:31;;;;;;;3.58;1.98;;;12.20;99.90;;;11.40;100.00;97434.94;5009777;28;20499;-75
2023/01/02 03:50:05;;;;;;;6.57;2.30;;;12.20;99.90;;;11.58;100.00;97446.97;5009539;28;20433;-75
2023/01/02 03:52:31;;;;;;;5.47;2.20;;;12.30;99.90;;;11.55;100.00;97442.19;5058922;22;20458;-75
2023/01/02 03:54:59;;;;;;;4.70;2.05;;;12.30;99.90;;;11.57;100.00;97438.25;5068784;28;20439;-75
2023/01/02 03:57:34;;;;;;;3.90;1.88;;;12.40;99.90;;;11.46;100.00;97435.75;5069145;28;20396;-74
2023/01/02 04:00:06;;;;;;;8.52;2.42;;;12.20;99.90;;;11.47;100.00;97440.00;5069146;28;20391;-75
2023/01/02 04:02:38;;;;;;;4.30;1.98;;;12.30;99.90;;;11.39;100.00;97432.53;5054192;28;20444;-75
2023/01/02 04:05:13;;;;;;;7.03;2.30;;;12.20;99.90;;;11.28;100.00;97431.66;5034799;28;20782;-75
2023/01/02 04:07:49;;;;;;;5.43;2.08;;;12.10;99.90;;;11.24;100.00;97439.31;5052713;28;20398;-76
2023/01/02 04:10:16;;;;;;;5.97;2.30;;;12.10;99.90;;;11.24;100.00;97436.69;5052667;28;20401;-75
2023/01/02 04:12:48;;;;;;;3.90;2.30;;;12.10;99.90;;;11.22;100.00;97432.66;5051641;28;20875;-75
2023/01/02 04:15:18;;;;;;;5.95;2.30;;;12.10;99.90;;;11.23;100.00;97429.78;5052096;28;20397;-75
2023/01/02 04:17:49;;;;;;;6.57;2.30;;;12.10;99.90;;;11.17;100.00;97435.28;5051550;28;20805;-75
2023/01/02 04:20:20;;;;;;;5.95;2.28;;;12.10;99.90;;;11.30;100.00;97426.09;5052264;28;20402;-75
2023/01/02 04:22:52;;;;;;;5.28;2.17;;;12.10;99.90;;;11.23;100.00;97419.19;5043267;28;20516;-75
2023/01/02 04:25:19;;;;;;;2.40;1.88;;;12.10;99.90;;;11.24;100.00;97418.13;5052196;28;20397;-75
2023/01/02 04:27:52;;;;;;;6.25;2.10;;;12.00;99.90;;;11.22;100.00;97409.63;5044028;28;20393;-74
2023/01/02 04:30:18;;;;;;;4.88;2.20;;;12.00;99.90;;;11.17;100.00;97401.66;5052250;28;20740;-76
2023/01/02 04:32:46;;;;;;;4.70;2.17;;;12.00;99.90;;;11.16;100.00;97402.69;5051306;28;20404;-75
2023/01/02 04:35:18;;;;;;;5.55;2.20;;;12.00;99.90;;;11.09;100.00;97401.31;5051996;28;20890;-75
2023/01/02 04:37:44;;;;;;;4.93;1.92;;;11.90;99.90;;;11.10;100.00;97394.97;5052475;28;20408;-75
2023/01/02 04:40:16;;;;;;;6.10;2.20;;;11.90;99.90;;;11.22;100.00;97399.03;5051962;28;20398;-75
2023/01/02 04:42:42;;;;;;;5.65;2.20;;;12.00;99.90;;;11.15;100.00;97401.09;5051062;28;20413;-75
2023/01/02 04:45:09;;;;;;;4.50;2.10;;;12.00;99.90;;;11.38;100.00;97391.97;5051858;28;20432;-74
2023/01/02 04:47:35;;;;;;;5.60;1.93;;;12.10;99.90;;;11.27;100.00;97406.22;5051869;28;20821;-75
2023/01/02 04:50:01;;;;;;;4.72;2.35;;;12.10;99.90;;;11.42;100.00;97393.09;5051866;28;20429;-75
2023/01/02 04:52:28;;;;;;;5.47;2.10;;;12.20;99.90;;;11.41;100.00;97398.63;5033101;28;20428;-75
2023/01/02 04:54:54;;;;;;;4.07;1.83;;;12.20;99.90;;;11.38;100.00;97407.88;5051695;28;20770;-75
2023/01/02 04:57:20;;;;;;;5.20;1.90;;;12.20;99.90;;;11.28;100.00;97402.50;5051727;28;20405;-75
2023/01/02 04:59:46;;;;;;;5.68;2.28;;;12.20;99.90;;;11.38;100.00;97405.22;5051814;28;20445;-74
2023/01/02 05:02:12;;;;;;;4.00;2.40;;;12.20;99.90;;;11.46;100.00;97404.75;5050806;28;20672;-74
2023/01/02 05:04:38;;;;;;;6.43;2.13;;;12.20;99.90;;;11.41;100.00;97409.25;5051173;28;20433;-74
2023/01/02 05:07:04;;;;;;;6.93;2.25;;;12.30;99.90;;;11.46;100.00;97412.72;5051660;28;20406;-74
2023/01/02 05:09:31;;;;;;;3.43;1.90;;;12.30;99.90;;;11.45;100.00;97407.66;5051430;28;20432;-74
2023/01/02 05:11:57;;;;;;;5.65;2.20;;;12.20;99.90;;;11.38;100.00;97413.19;5050791;28;20412;-76
2023/01/02 05:14:23;;;;;;;4.27;2.50;;;12.20;99.90;;;11.42;100.00;97419.59;5051028;28;20401;-76
2023/01/02 05:16:49;;;;;;;8.83;2.90;;;12.20;99.90;;;11.36;100.00;97417.94;5051429;28;20467;-76
2023/01/02 05:19:15;;;;;;;6.65;2.10;;;12.20;99.90;;;11.21;100.00;97426.56;5051242;28;20404;-77
2023/01/02 05:24:26;;;;;;;4.05;2.00;;;12.10;99.90;;;11.33;100.00;97423.75;5050936;28;20815;-75
2023/01/02 05:26:53;;;;;;;7.07;2.20;;;12.10;99.90;;;11.23;100.00;97421.03;5051164;28;20409;-76
2023/01/02 05:29:19;;;;;;;5.50;2.03;;;12.10;99.90;;;11.30;100.00;97421.59;5047877;28;20435;-76
2023/01/02 05:31:45;;;;;;;6.33;2.00;;;12.10;99.90;;;11.33;100.00;97422.97;5049974;28;20927;-76
2023/01/02 05:34:14;;;;;;;7.17;2.30;;;12.10;99.90;;;11.63;100.00;97423.97;5049943;28;20429;-76
2023/01/02 05:36:40;;;;;;;5.25;1.90;;;12.30;99.90;;;11.61;100.00;97428.72;5046937;28;20417;-76
2023/01/02 05:39:07;;;;;;;6.68;2.70;;;12.40;99.90;;;11.75;100.00;97418.47;5050485;28;20413;-75
2023/01/02 05:41:33;;;;;;;5.25;2.00;;;12.40;99.90;;;11.58;100.00;97418.59;5049630;28;20502;-75
2023/01/02 05:44:00;;;;;;;6.20;2.60;;;12.40;99.90;;;11.41;100.00;97414.53;5050029;28;20404;-75
2023/01/02 05:46:26;;;;;;;5.07;2.47;;;12.20;99.90;;;11.46;100.00;97417.22;5050300;28;20406;-74
2023/01/02 05:48:51;;;;;;;5.82;2.40;;;12.20;99.90;;;11.38;100.00;97418.47;5050185;28;20444;-75
2023/01/02 05:51:18;;;;;;;7.05;2.63;;;12.20;99.90;;;11.33;100.00;97412.34;5049515;28;20445;-75
2023/01/02 05:53:44;;;;;;;10.65;2.55;;;12.10;99.90;;;11.44;100.00;97420.09;5049897;28;20402;-75
2023/01/02 05:56:13;;;;;;;6.63;2.30;;;12.10;99.90;;;11.31;100.00;97412.59;5050188;28;20401;-74
2023/01/02 05:58:43;;;;;;;4.95;2.55;;;12.20;99.90;;;11.29;100.00;97412.06;5047763;28;20405;-73
2023/01/02 06:01:13;;;;;;;7.20;2.53;;;12.10;99.90;;;11.29;100.00;97412.06;5049899;28;20408;-74
2023/01/02 06:03:39;;;;;;;6.65;2.40;;;12.10;99.90;;;11.44;100.00;97422.75;5040366;28;20402;-74
2023/01/02 06:06:07;;;;;;;5.22;2.30;;;12.20;99.90;;;11.38;100.00;97420.34;5040143;28;20399;-74
2023/01/02 06:08:34;;;;;;;8.05;2.60;;;12.20;99.90;;;11.37;100.00;97430.13;5038760;28;20403;-76
2023/01/02 06:11:00;;;;;;;6.07;2.40;;;12.30;99.90;;;11.39;100.00;97421.94;5040478;28;20732;-75
2023/01/02 06:13:28;;;;;;;7.30;2.50;;;12.20;99.90;;;11.44;100.00;97422.75;5039462;28;20511;-74
2023/01/02 06:15:54;;;;;;;9.43;2.38;;;12.20;99.90;;;11.42;100.00;97426.75;5038750;28;20411;-75
2023/01/02 06:18:22;;;;;;;7.38;2.72;;;12.30;99.90;;;11.36;100.00;97423.22;5040654;28;20458;-74
2023/01/02 06:20:48;;;;;;;7.45;2.33;;;12.20;99.90;;;11.43;100.00;97429.09;5040422;28;20395;-75
2023/01/02 06:23:15;;;;;;;6.57;2.38;;;12.20;99.90;;;11.32;100.00;97427.47;5037426;28;20904;-75
2023/01/02 06:25:41;;;;;;;9.75;2.70;;;12.20;99.90;;;11.30;100.00;97426.91;5021941;28;20402;-75
2023/01/02 06:28:07;;;;;;;12.02;2.58;;;12.10;99.90;;;11.55;100.00;97426.28;5038847;28;20415;-74
2023/01/02 06:30:33;;;;;;;7.30;2.40;;;12.20;99.90;;;11.50;100.00;97436.88;5038367;28;20418;-75
2023/01/02 06:32:59;;;;;;;10.23;2.90;;;12.20;99.90;;;11.35;100.00;97440.19;5039206;28;20398;-75
2023/01/02 06:35:26;;;;;;;6.25;2.72;;;12.30;99.90;;;11.30;100.00;97442.00;5039775;28;20402;-76
2023/01/02 06:37:52;;;;;;;8.82;2.40;;;12.20;99.90;;;11.26;100.00;97444.38;5023973;28;20420;-73
2023/01/02 06:40:18;;;;;;;10.18;2.70;;;12.10;99.90;;;11.17;100.00;97445.88;5047579;28;20417;-75
2023/01/02 06:42:44;;;;;;;11.40;3.08;;;12.00;99.90;;;11.20;100.00;97445.41;5048396;28;20439;-76
2023/01/02 06:45:11;;;;;;;5.53;2.33;;;12.10;99.90;;;11.35;100.00;97455.31;5049188;28;20401;-77
2023/01/02 06:47:37;;;;;;;9.65;2.70;;;12.10;99.90;;;11.39;100.00;97461.69;5049392;28;20762;-77
2023/01/02 06:50:04;;;;;;;11.00;2.90;;;12.20;99.90;;;11.36;100.00;97465.63;5046742;28;20412;-76
2023/01/02 06:52:31;;;;;;;7.70;2.60;;;12.20;99.90;;;11.48;100.00;97460.16;5048454;28;20958;-76
2023/01/02 06:54:57;;;;;;;5.88;2.72;;;12.20;99.90;;;11.45;100.00;97472.06;5048973;28;20909;-74
2023/01/02 06:57:23;;;;;;;6.30;2.45;;;12.20;99.90;;;11.42;100.00;97467.28;5046580;28;20409;-74
2023/01/02 06:59:49;;;;;;;7.53;2.77;;;12.20;99.90;;;11.44;100.00;97470.47;5049290;28;20420;-74
2023/01/02 07:02:15;;;;;;;8.90;2.60;;;12.20;99.90;;;11.28;100.00;97476.69;5048393;28;20806;-75
2023/01/02 07:04:41;;;;;;;14.88;2.70;;;12.10;99.90;;;11.21;100.00;97474.25;5048847;28;20497;-75
2023/01/02 07:07:07;;;;;;;5.75;2.67;;;12.10;99.90;;;11.16;100.00;97478.72;5049182;28;20404;-75
2023/01/02 07:09:34;;;;;;;3.95;2.33;;;12.00;99.90;;;11.12;100.00;97485.59;5049098;28;20401;-75
2023/01/02 07:12:00;;;;;;;4.97;2.30;;;12.00;99.90;;;11.02;100.00;97478.34;5048234;28;20431;-76
2023/01/02 07:14:26;;;;;;;7.40;2.70;;;11.90;99.90;;;10.96;100.00;97473.25;5048839;28;20404;-75
2023/01/02 07:16:52;;;;;;;6.32;2.65;;;11.90;99.90;;;10.95;100.00;97476.97;5048125;28;20508;-76
2023/01/02 07:19:18;;;;;;;6.72;2.38;;;11.80;99.90;;;10.93;100.00;97479.03;5049528;28;20425;-75
2023/01/02 07:21:44;;;;;;;6.05;2.40;;;11.80;99.90;;;10.96;100.00;97486.50;5048295;28;20413;-73
2023/01/02 07:24:12;;;;;;;6.95;2.70;;;11.70;99.90;;;10.88;100.00;97501.00;5050569;28;20982;-76
2023/01/02 07:26:39;;;;;;;5.10;2.50;;;11.70;99.90;;;11.12;100.00;97502.28;5048903;28;20910;-75
2023/01/02 07:29:05;;;;;;;6.22;2.35;;;11.80;99.90;;;11.15;100.00;97500.97;5048826;28;20397;-75
2023/01/02 07:31:31;;;;;;;5.70;2.80;;;11.90;99.90;;;11.06;100.00;97497.97;5048296;28;20965;-76
2023/01/02 07:33:57;;;;;;;9.90;2.70;;;11.90;99.90;;;11.09;100.00;97505.44;5048620;28;20833;-76
2023/01/02 07:36:24;;;;;;;9.40;2.55;;;11.90;99.90;;;10.99;100.00;97505.31;5048992;28;20410;-76
2023/01/02 07:38:50;;;;;;;6.43;2.70;;;11.80;99.90;;;10.98;100.00;97510.88;5051486;28;20409;-76
2023/01/02 07:41:19;;;;;;;6.30;2.60;;;11.80;99.90;;;10.87;100.00;97515.28;5051920;28;20397;-75
2023/01/02 07:43:48;;;;;;;7.43;2.50;;;11.70;99.90;;;10.83;100.00;97519.47;5052254;28;20426;-76
2023/01/02 07:46:16;;;;;;;9.07;3.00;;;11.70;99.90;;;10.74;100.00;97518.31;5051992;28;20431;-74
2023/01/02 07:48:42;;;;;;;5.27;2.77;;;11.60;99.90;;;10.75;100.00;97531.28;5052376;28;20394;-75
2023/01/02 07:51:09;;;;;;;5.35;2.75;;;11.60;99.90;;;10.68;100.00;97528.03;5052596;28;20412;-76
2023/01/02 07:53:35;;;;;;;4.45;2.10;;;11.60;99.90;;;10.75;100.00;97523.34;5051449;28;20401;-76
2023/01/02 07:56:02;;;;;;;9.85;2.80;;;11.60;99.90;;;10.71;100.00;97534.69;5051648;28;20425;-78
2023/01/02 07:58:28;;;;;;;8.35;3.08;;;11.50;99.90;;;10.76;100.00;97532.91;5053977;28;20401;-78
2023/01/02 08:00:55;;;;;;;6.75;2.60;;;11.60;99.90;;;10.81;100.00;97532.16;5054486;28;20435;-77
2023/01/02 08:03:21;;;;;;;6.13;2.55;;;11.70;99.90;;;10.80;100.00;97528.72;5051348;28;20511;-76
2023/01/02 08:05:47;;;;;;;9.38;2.95;;;11.70;99.90;;;10.72;100.00;97534.44;5052345;28;20393;-75
2023/01/02 08:08:14;;;;;;;6.50;2.60;;;11.60;99.90;;;10.74;100.00;97534.22;5052765;28;20826;-76
2023/01/02 08:10:39;;;;;;;6.63;2.73;;;11.60;99.90;;;11.00;100.00;97537.91;5052698;28;20471;-75
2023/01/02 08:13:06;;;;;;;8.35;2.90;;;11.70;99.90;;;11.03;100.00;97537.44;5049994;28;20409;-75
2023/01/02 08:15:33;;;;;;;7.10;3.10;;;11.80;99.90;;;11.14;100.00;97542.56;5048382;28;20966;-76
2023/01/02 08:18:00;;;;;;;9.82;2.60;;;11.90;99.90;;;11.12;100.00;97551.81;5051688;28;20424;-76
2023/01/02 08:20:26;;;;;;;7.43;2.90;;;12.00;99.90;;;11.22;100.00;97550.06;5052291;28;20405;-76
2023/01/02 08:22:55;;;;;;;8.43;2.67;;;12.00;99.90;;;11.13;100.00;97556.84;5033104;28;20830;-75
2023/01/02 08:25:21;;;;;;;7.72;2.50;;;12.00;99.90;;;11.08;100.00;97556.81;5051563;28;20401;-75
2023/01/02 08:27:47;;;;;;;6.22;2.10;;;12.00;99.90;;;11.05;100.00;97559.19;5052302;28;20986;-75
2023/01/02 08:30:13;;;;;;;8.43;3.25;;;11.90;99.90;;;11.23;100.00;97558.81;5051969;28;20443;-75
2023/01/02 08:32:39;;;;;;;6.90;3.00;;;12.00;99.90;;;11.36;100.00;97561.03;5033434;28;20467;-75
2023/01/02 08:35:07;;;;;;;5.50;2.42;;;12.20;99.90;;;11.32;100.00;97562.63;5051803;28;20436;-75
2023/01/02 08:37:34;;;;;;;9.25;2.92;;;12.10;99.90;;;11.40;100.00;97564.00;5051844;28;20409;-75
2023/01/02 08:40:00;;;;;;;6.35;2.70;;;12.20;99.90;;;11.31;100.00;97563.66;5049918;28;20412;-77
2023/01/02 08:42:26;;;;;;;7.47;2.88;;;12.20;99.90;;;11.47;100.00;97573.34;5050909;28;20413;-76
2023/01/02 08:44:52;;;;;;;10.07;2.75;;;12.20;99.90;;;11.59;100.00;97579.28;5033791;28;21004;-77
2023/01/02 08:47:18;;;;;;;11.57;2.80;;;12.30;99.90;;;11.59;100.00;97567.88;5051831;28;20416;-76
2023/01/02 08:49:44;;;;;;;5.55;2.42;;;12.40;99.90;;;11.63;100.00;97580.38;5051582;28;20488;-77
2023/01/02 08:52:11;;;;;;;13.80;2.95;;;12.40;99.90;;;11.58;100.00;97582.19;5051043;28;20435;-76
2023/01/02 08:54:37;;;;;;;11.73;2.72;;;12.40;99.90;;;11.66;100.00;97579.06;5033564;28;20414;-76
2023/01/02 08:57:03;;;;;;;4.75;2.25;;;12.40;99.90;;;11.65;100.00;97577.50;5051809;28;20404;-77
2023/01/02 08:59:29;;;;;;;10.02;2.65;;;12.40;99.90;;;11.59;100.00;97571.31;5051561;28;20436;-77
2023/01/02 09:01:55;;;;;;;6.47;2.30;;;12.40;99.90;;;11.78;100.00;97574.44;5050938;28;20461;-77
2023/01/02 09:04:21;;;;;;;11.25;2.63;;;12.50;99.90;;;11.84;100.00;97578.72;5051202;28;20404;-77
2023/01/02 09:06:47;;;;;;;6.35;2.47;;;12.60;99.90;;;11.89;100.00;97581.41;5033939;28;20483;-77
2023/01/02 09:09:16;;;;;;;5.90;2.37;;;12.60;99.90;;;11.81;100.00;97584.53;5051464;28;21032;-77
2023/01/02 09:11:49;;;;;;;7.60;2.90;;;12.60;99.90;;;11.82;100.00;97583.47;5033039;28;20769;-77
2023/01/02 09:14:17;;;;;;;4.50;2.37;;;12.60;99.90;;;11.83;100.00;97584.28;5050992;28;20405;-77
2023/01/02 09:16:44;;;;;;;6.35;2.80;;;12.60;99.90;;;11.75;100.00;97595.34;5051447;28;20412;-77
2023/01/02 09:19:10;;;;;;;7.22;2.42;;;12.60;99.90;;;11.77;100.00;97593.25;5048337;28;20910;-79
2023/01/02 09:21:36;;;;;;;9.05;2.55;;;12.60;99.90;;;11.68;100.00;97600.03;5049593;28;20432;-77
2023/01/02 09:24:02;;;;;;;8.50;2.58;;;12.50;99.90;;;11.71;100.00;97599.53;5046379;28;20944;-79
2023/01/02 09:26:29;;;;;;;7.80;2.80;;;12.50;99.90;;;11.76;100.00;97611.00;5038716;28;20513;-78
2023/01/02 09:28:55;;;;;;;5.88;2.50;;;12.50;99.90;;;11.78;100.00;97608.13;5046080;28;20409;-77
2023/01/02 09:31:21;;;;;;;9.02;2.50;;;12.60;99.90;;;11.83;100.00;97613.44;5041963;28;20419;-78
2023/01/02 09:33:47;;;;;;;6.90;2.80;;;12.70;99.90;;;12.00;100.00;97617.56;5029610;28;20779;-78
2023/01/02 09:36:17;;;;;;;9.25;2.58;;;12.80;99.90;;;11.97;100.00;97618.06;5050665;28;20828;-78
2023/01/02 09:38:43;;;;;;;11.55;3.00;;;12.80;99.90;;;12.01;100.00;97623.69;5046467;28;20441;-77
2023/01/02 09:41:25;;;;;;;8.93;2.60;;;12.90;97.40;;;12.13;100.00;97629.59;5042394;28;20405;-79
2023/01/02 09:43:57;;;;;;;11.35;2.45;;;12.90;99.90;;;12.04;100.00;97625.81;5028369;28;20842;-75
2023/01/02 09:46:30;;;;;;;12.15;2.85;;;12.90;96.90;;;12.16;100.00;97634.41;5047171;28;20404;-75
2023/01/02 09:48:58;;;;;;;7.38;2.55;;;13.00;99.00;;;12.25;100.00;97635.53;5044419;28;20403;-76
2023/01/02 09:53:54;;;;;;;4.53;2.10;;;13.10;96.50;;;12.45;100.00;97644.69;5027060;28;20430;-76
2023/01/02 09:56:27;;;;;;;6.45;2.08;;;13.10;99.90;;;12.39;100.00;97646.50;5030361;28;20753;-76
2023/01/02 09:59:06;;;;;;;4.35;1.98;;;13.20;99.90;;;12.54;100.00;97629.88;5029757;28;20453;-76
2023/01/02 10:01:44;;;;;;;9.38;2.30;;;13.30;99.90;;;12.71;100.00;97638.44;5027557;28;20915;-75
2023/01/02 10:04:25;;;;;;;6.88;2.50;;;13.50;99.90;;;12.87;100.00;97642.78;5026505;28;20410;-76
2023/01/02 10:07:01;;;;;;;5.78;2.15;;;13.60;99.90;;;12.94;100.00;97643.34;5027288;28;20441;-76
2023/01/02 10:09:36;;;;;;;10.27;2.28;;;13.70;99.90;;;13.09;100.00;97655.88;5028347;28;20418;-76
2023/01/02 10:12:10;;;;;;;7.10;2.67;;;13.90;99.90;;;13.28;100.00;97654.41;5037624;28;20426;-76
2023/01/02 10:14:52;;;;;;;8.32;2.15;;;14.10;99.90;;;13.86;100.00;97660.34;5024649;28;20409;-77
2023/01/02 10:17:19;;;;;;;6.95;2.20;;;14.60;99.90;;;14.36;100.00;97656.09;5027532;28;20407;-77
2023/01/02 10:19:52;;;;;;;4.85;2.20;;;15.10;99.90;;;14.87;100.00;97654.16;5021311;28;20399;-76
2023/01/02 10:22:23;;;;;;;9.50;2.55;;;15.50;99.90;;;15.45;100.00;97657.88;5028677;28;20981;-76
2023/01/02 10:25:00;;;;;;;8.27;2.10;;;16.10;99.90;;;15.63;100.00;97659.16;5022053;28;20480;-75
2023/01/02 10:27:35;;;;;;;8.35;2.08;;;16.40;98.70;;;15.86;95.08;97653.13;5029371;28;20412;-76